Terminal Aerodrome Forecast
Issued by NWS Tuscon, AZ

Home | Current Version | Previous Version | Text Only | Print | Product List | Glossary On
Versions: 1 2 3 4 5 6 7 8 9 10 11 12 13 14 15 16 17 18 19 20 21
448
FTUS45 KTWC 271740
TAFDUG
TAF
KDUG 271740Z 2718/2818 27005KT P6SM SCT120
     FM272100 32011G17KT P6SM FEW080 SCT150
     FM280200 34010KT P6SM FEW100=

USA.gov is the U.S. government's official web portal to all federal, state and local government web resources and services.